Time;durP1;ratioP1;P1;durP2;ratioP2;P2;SDS_P1;SDS_P2;PMS_P1;PMS_P2;Temp;Humidity;BMP_temperature;BMP_pressure;BME280_temperature;BME280_humidity;BME280_pressure;Samples;Min_cycle;Max_cycle;Signal;HPM_P1;HPM_P2
2023/12/28 00:00:28;;;;;;;6.13;3.00;;;-1.20;99.90;;;;;;5035345;28;20036;-81
2023/12/28 00:02:53;;;;;;;7.50;2.83;;;-1.10;99.90;;;;;;5052295;28;20108;-81
2023/12/28 00:05:19;;;;;;;4.93;2.92;;;-1.20;99.90;;;;;;5052008;28;20505;-81
2023/12/28 00:07:45;;;;;;;5.03;2.58;;;-1.30;99.90;;;;;;5035093;28;20478;-81
2023/12/28 00:10:10;;;;;;;7.05;2.70;;;-1.30;99.90;;;;;;5035005;28;20401;-81
2023/12/28 00:12:36;;;;;;;4.93;2.33;;;-1.30;99.90;;;;;;5035237;28;20080;-81
2023/12/28 00:15:02;;;;;;;5.70;2.25;;;-1.40;99.90;;;;;;5041896;28;20078;-81
2023/12/28 00:17:28;;;;;;;5.30;2.65;;;-1.50;99.90;;;;;;5056343;28;20116;-81
2023/12/28 00:19:54;;;;;;;7.15;3.25;;;-1.50;99.90;;;;;;5037976;28;20083;-81
2023/12/28 00:22:20;;;;;;;5.57;2.72;;;-1.50;99.90;;;;;;5055899;28;20086;-81
2023/12/28 00:24:45;;;;;;;4.32;2.28;;;-1.50;99.90;;;;;;5055783;28;20033;-81
2023/12/28 00:27:11;;;;;;;4.47;2.55;;;-1.50;99.90;;;;;;5056227;28;20037;-81
2023/12/28 00:29:38;;;;;;;6.38;2.70;;;-1.50;99.90;;;;;;5055686;28;20025;-81
2023/12/28 00:32:07;;;;;;;4.70;2.58;;;-1.60;99.90;;;;;;5054765;28;20401;-81
2023/12/28 00:34:33;;;;;;;5.75;2.67;;;-1.60;99.90;;;;;;5055629;28;20032;-81
2023/12/28 00:36:58;;;;;;;4.82;2.72;;;-1.60;99.90;;;;;;5037944;28;20029;-81
2023/12/28 00:39:27;;;;;;;4.03;2.47;;;-1.50;99.90;;;;;;5055930;28;20398;-81
2023/12/28 00:41:53;;;;;;;6.82;2.75;;;-1.50;99.90;;;;;;5055721;28;20025;-81
2023/12/28 00:44:18;;;;;;;4.93;2.50;;;-1.50;99.90;;;;;;5037786;28;20078;-81
2023/12/28 00:46:44;;;;;;;6.18;2.95;;;-1.50;99.90;;;;;;5037799;28;20087;-81
2023/12/28 00:49:09;;;;;;;5.65;2.92;;;-1.50;99.90;;;;;;5038311;28;20030;-81
2023/12/28 00:51:36;;;;;;;6.88;3.08;;;-1.50;99.90;;;;;;5056074;28;20505;-81
2023/12/28 00:54:02;;;;;;;6.72;2.92;;;-1.40;99.90;;;;;;5059196;28;20021;-81
2023/12/28 00:56:27;;;;;;;4.20;2.38;;;-1.50;99.90;;;;;;5059541;28;20029;-81
2023/12/28 00:58:53;;;;;;;6.10;3.25;;;-1.50;99.90;;;;;;5059028;28;20599;-81
2023/12/28 01:01:19;;;;;;;7.43;2.70;;;-1.50;99.90;;;;;;5057972;28;20052;-81
2023/12/28 01:03:45;;;;;;;5.45;2.88;;;-1.50;99.90;;;;;;5057554;28;20087;-81
2023/12/28 01:06:10;;;;;;;6.68;3.20;;;-1.60;99.90;;;;;;5059003;28;20095;-81
2023/12/28 01:08:36;;;;;;;4.53;2.47;;;-1.60;99.90;;;;;;5040418;28;20029;-81
2023/12/28 01:11:02;;;;;;;4.50;2.47;;;-1.60;99.90;;;;;;5058921;28;20098;-81
2023/12/28 01:13:28;;;;;;;5.32;2.72;;;-1.70;99.90;;;;;;5058181;28;20036;-82
2023/12/28 01:15:54;;;;;;;5.90;2.90;;;-1.70;99.90;;;;;;5058804;28;20025;-81
2023/12/28 01:18:20;;;;;;;3.53;2.33;;;-1.70;99.90;;;;;;5057723;28;20079;-81
2023/12/28 01:20:46;;;;;;;5.45;2.40;;;-1.70;99.90;;;;;;5056713;28;20021;-81
2023/12/28 01:23:12;;;;;;;5.88;2.28;;;-1.70;99.90;;;;;;5057017;28;20029;-81
2023/12/28 01:25:37;;;;;;;4.75;2.65;;;-1.70;99.90;;;;;;5057446;28;20062;-81
2023/12/28 01:28:04;;;;;;;3.67;2.10;;;-1.70;99.90;;;;;;5055949;28;20234;-81
2023/12/28 01:30:30;;;;;;;4.13;2.20;;;-1.70;99.90;;;;;;5057337;28;20021;-81
2023/12/28 01:32:55;;;;;;;5.38;2.30;;;-1.70;99.90;;;;;;5056046;28;20115;-81
2023/12/28 01:35:21;;;;;;;7.05;3.03;;;-1.70;99.90;;;;;;5040286;28;20036;-82
2023/12/28 01:37:47;;;;;;;3.83;2.05;;;-1.70;99.90;;;;;;5056795;28;20485;-81
2023/12/28 01:40:12;;;;;;;4.80;2.58;;;-1.70;99.90;;;;;;5057136;28;20021;-81
2023/12/28 01:42:39;;;;;;;5.05;2.47;;;-1.70;99.90;;;;;;5055707;28;20083;-81
2023/12/28 01:45:05;;;;;;;4.55;2.40;;;-1.70;99.90;;;;;;5055154;28;20033;-81
2023/12/28 01:47:31;;;;;;;6.40;2.60;;;-1.80;99.90;;;;;;5054873;28;20033;-81
2023/12/28 01:49:58;;;;;;;4.85;2.63;;;-1.80;99.90;;;;;;5072011;28;20432;-81
2023/12/28 01:52:24;;;;;;;5.25;2.50;;;-1.80;99.90;;;;;;5071542;28;20029;-81
2023/12/28 01:54:50;;;;;;;4.70;2.85;;;-1.80;99.90;;;;;;5056216;28;20051;-81
2023/12/28 01:57:17;;;;;;;5.50;2.50;;;-1.90;99.90;;;;;;5071603;28;20021;-81
2023/12/28 01:59:43;;;;;;;9.05;3.22;;;-1.90;99.90;;;;;;5072624;28;20081;-81
2023/12/28 02:02:09;;;;;;;4.55;2.65;;;-2.00;99.90;;;;;;5059496;28;20048;-81
2023/12/28 02:04:35;;;;;;;5.25;2.17;;;-2.10;99.90;;;;;;5060446;28;20029;-81
2023/12/28 02:07:01;;;;;;;3.50;2.00;;;-2.20;99.90;;;;;;5042380;28;20033;-81
2023/12/28 02:09:27;;;;;;;4.72;2.20;;;-2.20;99.90;;;;;;5060142;28;20025;-81
2023/12/28 02:11:54;;;;;;;6.85;2.90;;;-2.10;99.90;;;;;;5060015;28;20054;-81
2023/12/28 02:14:21;;;;;;;5.60;3.47;;;-2.10;99.90;;;;;;5054194;28;20053;-81
2023/12/28 02:17:12;;;;;;;5.85;2.88;;;-2.10;99.90;;;;;;5058806;28;20029;-81
2023/12/28 02:19:47;;;;;;;6.20;3.13;;;-2.10;99.90;;;;;;5059439;28;20079;-81
2023/12/28 02:22:18;;;;;;;5.53;2.72;;;-2.10;99.90;;;;;;5059294;28;20032;-81
2023/12/28 02:25:02;;;;;;;5.05;2.20;;;-2.10;99.90;;;;;;5059610;28;20040;-81
2023/12/28 02:27:27;;;;;;;4.93;2.50;;;-2.10;99.90;;;;;;5058227;28;20508;-81
2023/12/28 02:29:54;;;;;;;7.05;3.00;;;-2.10;99.90;;;;;;5059229;28;20143;-81
2023/12/28 02:32:25;;;;;;;7.45;3.13;;;-2.10;99.90;;;;;;5059175;28;20112;-81
2023/12/28 02:34:55;;;;;;;6.65;2.90;;;-2.20;99.90;;;;;;5058091;28;20055;-81
2023/12/28 02:37:22;;;;;;;6.20;3.05;;;-2.20;99.90;;;;;;5057570;28;20033;-81
2023/12/28 02:39:51;;;;;;;6.18;3.00;;;-2.10;99.90;;;;;;5059378;28;20021;-81
2023/12/28 02:42:17;;;;;;;5.82;2.60;;;-2.10;99.90;;;;;;5059190;28;20020;-81
2023/12/28 02:44:43;;;;;;;5.50;2.78;;;-2.10;99.90;;;;;;5059118;28;20117;-81
2023/12/28 02:47:08;;;;;;;6.95;2.70;;;-2.10;99.90;;;;;;5056844;28;20460;-81
2023/12/28 02:49:34;;;;;;;4.20;2.30;;;-2.10;99.90;;;;;;5058180;28;20481;-81
2023/12/28 02:52:00;;;;;;;4.55;2.40;;;-2.10;99.90;;;;;;5061412;28;20509;-81
2023/12/28 02:54:25;;;;;;;7.90;2.75;;;-2.20;99.90;;;;;;5056613;28;20565;-81
2023/12/28 02:56:51;;;;;;;4.93;2.40;;;-2.30;99.90;;;;;;5056409;28;20021;-81
2023/12/28 02:59:16;;;;;;;9.25;4.05;;;-2.40;99.90;;;;;;5056221;28;20032;-81
2023/12/28 03:01:42;;;;;;;11.23;5.50;;;-2.40;99.90;;;;;;5056816;28;20024;-81
2023/12/28 03:04:09;;;;;;;21.88;8.45;;;-2.40;99.90;;;;;;5039381;28;20048;-81
2023/12/28 03:06:35;;;;;;;18.83;9.13;;;-2.30;99.90;;;;;;5056607;28;20447;-81
2023/12/28 03:09:01;;;;;;;27.23;11.07;;;-2.30;99.90;;;;;;5056888;28;20067;-81
2023/12/28 03:11:26;;;;;;;27.35;12.15;;;-2.30;99.90;;;;;;5056784;28;20497;-81
2023/12/28 03:13:52;;;;;;;30.77;13.73;;;-2.30;99.90;;;;;;5056760;28;20040;-81
2023/12/28 03:16:18;;;;;;;26.95;12.70;;;-2.20;99.90;;;;;;5018928;28;20037;-81
2023/12/28 03:18:44;;;;;;;23.40;11.85;;;-2.20;99.90;;;;;;5037228;28;20033;-81
2023/12/28 03:21:09;;;;;;;25.67;11.35;;;-2.20;99.90;;;;;;5052129;28;20120;-81
2023/12/28 03:23:35;;;;;;;22.77;10.38;;;-2.20;99.90;;;;;;5036503;28;20026;-81
2023/12/28 03:26:01;;;;;;;23.80;10.43;;;-2.20;99.90;;;;;;5037267;28;20037;-81
2023/12/28 03:28:26;;;;;;;24.02;10.80;;;-2.10;99.90;;;;;;5036830;28;20079;-81
2023/12/28 03:30:52;;;;;;;26.33;11.77;;;-2.10;99.90;;;;;;5051365;28;20375;-81
2023/12/28 03:33:18;;;;;;;24.13;9.85;;;-2.10;99.90;;;;;;5035528;28;20504;-81
2023/12/28 03:35:43;;;;;;;5.85;3.17;;;-2.10;99.90;;;;;;5051150;28;20110;-81
2023/12/28 03:38:09;;;;;;;5.80;3.10;;;-2.10;99.90;;;;;;5055018;28;20025;-81
2023/12/28 03:40:35;;;;;;;5.53;2.97;;;-2.20;99.90;;;;;;5022362;28;20031;-81
2023/12/28 03:43:00;;;;;;;4.22;2.47;;;-2.20;99.90;;;;;;5055223;28;20036;-81
2023/12/28 03:45:26;;;;;;;4.35;2.42;;;-2.20;99.90;;;;;;5063948;28;20026;-81
2023/12/28 03:47:52;;;;;;;4.20;2.33;;;-2.20;99.90;;;;;;5051769;28;20029;-81
2023/12/28 03:50:17;;;;;;;4.50;2.58;;;-2.20;99.90;;;;;;5038611;28;20485;-81
2023/12/28 03:52:43;;;;;;;4.32;2.10;;;-2.30;99.90;;;;;;5055551;28;20078;-81
2023/12/28 03:55:09;;;;;;;5.32;2.58;;;-2.20;99.90;;;;;;5056887;28;20082;-81
2023/12/28 03:57:35;;;;;;;5.22;2.28;;;-2.20;99.90;;;;;;5056688;28;20036;-81
2023/12/28 04:00:00;;;;;;;4.32;2.30;;;-2.20;99.90;;;;;;5050269;28;20410;-81
2023/12/28 04:02:31;;;;;;;4.60;2.40;;;-2.20;99.90;;;;;;5036675;28;20030;-81
2023/12/28 04:04:58;;;;;;;4.32;2.50;;;-2.20;99.90;;;;;;5035289;28;20104;-81
2023/12/28 04:07:24;;;;;;;4.07;2.20;;;-2.30;99.90;;;;;;5034834;28;20120;-81
2023/12/28 04:09:50;;;;;;;3.45;1.88;;;-2.40;99.90;;;;;;5036593;28;20107;-81
2023/12/28 04:12:15;;;;;;;12.15;5.43;;;-2.40;99.90;;;;;;5035445;28;20087;-81
2023/12/28 04:14:41;;;;;;;10.65;5.60;;;-2.40;99.90;;;;;;5038973;28;20036;-81
2023/12/28 04:17:06;;;;;;;8.85;4.57;;;-2.50;99.90;;;;;;5035260;28;20128;-81
2023/12/28 04:19:32;;;;;;;9.13;4.47;;;-2.50;99.90;;;;;;5052291;28;20103;-81
2023/12/28 04:21:58;;;;;;;4.65;2.58;;;-2.50;99.90;;;;;;5035350;28;20026;-81
2023/12/28 04:24:23;;;;;;;4.32;2.10;;;-2.60;99.90;;;;;;5035172;28;20037;-81
2023/12/28 04:26:49;;;;;;;3.47;2.00;;;-2.60;99.90;;;;;;5035848;28;20039;-81
2023/12/28 04:29:15;;;;;;;3.97;1.70;;;-2.60;99.90;;;;;;5049006;28;20112;-81
2023/12/28 04:31:44;;;;;;;4.32;1.73;;;-2.60;99.90;;;;;;5055649;28;20127;-81
2023/12/28 04:34:09;;;;;;;4.32;2.22;;;-2.60;99.90;;;;;;5056278;28;20432;-81
2023/12/28 04:36:42;;;;;;;5.70;2.60;;;-2.60;99.90;;;;;;5056405;28;20025;-81
2023/12/28 04:39:08;;;;;;;3.38;1.95;;;-2.60;99.90;;;;;;5056151;28;20089;-81
2023/12/28 04:41:34;;;;;;;4.72;2.20;;;-2.60;99.90;;;;;;5037855;28;20442;-81
2023/12/28 04:43:59;;;;;;;3.20;2.10;;;-2.50;99.90;;;;;;5037521;28;20021;-81
2023/12/28 04:46:25;;;;;;;3.97;2.40;;;-2.50;99.90;;;;;;5055437;28;20103;-81
2023/12/28 04:48:51;;;;;;;5.50;2.53;;;-2.50;99.90;;;;;;5054173;28;20052;-81
2023/12/28 04:51:17;;;;;;;5.65;2.60;;;-2.50;99.90;;;;;;5055019;28;20033;-81
2023/12/28 04:53:42;;;;;;;4.43;2.30;;;-2.50;99.90;;;;;;5055900;28;20040;-83
2023/12/28 04:56:08;;;;;;;5.50;2.78;;;-2.60;99.90;;;;;;5032682;28;20079;-82
2023/12/28 04:58:33;;;;;;;3.80;2.30;;;-2.60;99.90;;;;;;5053647;28;20029;-82
2023/12/28 05:01:01;;;;;;;5.60;2.10;;;-2.60;99.90;;;;;;5054520;28;20036;-82
2023/12/28 05:03:27;;;;;;;4.88;2.35;;;-2.60;99.90;;;;;;5055214;28;20547;-82
2023/12/28 05:05:53;;;;;;;14.80;9.60;;;-2.70;99.90;;;;;;5054844;28;20029;-82
2023/12/28 05:08:18;;;;;;;14.45;9.25;;;-2.70;99.90;;;;;;5034696;28;20071;-82
2023/12/28 05:10:44;;;;;;;15.48;9.85;;;-2.70;99.90;;;;;;5048540;28;20036;-82
2023/12/28 05:13:10;;;;;;;15.07;8.93;;;-2.80;99.90;;;;;;5047916;28;20470;-82
2023/12/28 05:15:35;;;;;;;13.00;8.23;;;-2.80;99.90;;;;;;5043120;28;20112;-81
2023/12/28 05:18:01;;;;;;;10.48;6.63;;;-2.80;99.90;;;;;;5047930;28;20033;-82
2023/12/28 05:20:27;;;;;;;7.68;4.80;;;-2.80;99.90;;;;;;5070935;28;20591;-83
2023/12/28 05:22:52;;;;;;;5.70;3.63;;;-2.70;99.90;;;;;;5054818;28;20054;-82
2023/12/28 05:25:24;;;;;;;6.90;3.05;;;-2.80;99.90;;;;;;5054409;28;20059;-82
2023/12/28 05:27:56;;;;;;;5.43;3.30;;;-2.80;99.90;;;;;;5053110;28;20037;-82
2023/12/28 05:30:24;;;;;;;9.32;4.68;;;-2.90;99.90;;;;;;5044901;28;20089;-81
2023/12/28 05:32:59;;;;;;;8.27;3.70;;;-2.90;99.90;;;;;;5070738;28;20037;-81
2023/12/28 05:35:24;;;;;;;20.42;8.52;;;-3.00;99.90;;;;;;5053321;28;20048;-81
2023/12/28 05:37:50;;;;;;;21.08;10.57;;;-3.00;99.90;;;;;;5054853;28;20025;-81
2023/12/28 05:40:15;;;;;;;31.90;15.30;;;-3.10;99.90;;;;;;5054337;28;20033;-81
2023/12/28 05:42:41;;;;;;;13.02;5.00;;;-3.10;99.90;;;;;;5054185;28;20029;-81
2023/12/28 05:45:07;;;;;;;10.57;4.93;;;-3.10;99.90;;;;;;5055123;28;20493;-81
2023/12/28 05:47:33;;;;;;;9.05;4.13;;;-3.10;99.90;;;;;;5037469;28;20051;-81
2023/12/28 05:49:59;;;;;;;6.13;2.33;;;-3.10;99.90;;;;;;5033496;28;20026;-81
2023/12/28 05:52:27;;;;;;;4.78;2.25;;;-3.00;99.90;;;;;;5035437;28;20029;-81
2023/12/28 05:55:04;;;;;;;4.75;2.25;;;-3.00;99.90;;;;;;5033999;28;20025;-81
2023/12/28 05:57:31;;;;;;;25.48;11.25;;;-3.00;99.90;;;;;;5047487;28;20474;-81
2023/12/28 05:59:59;;;;;;;24.23;10.40;;;-3.10;99.90;;;;;;5037757;28;20032;-81
2023/12/28 06:02:25;;;;;;;16.33;7.60;;;-3.10;99.90;;;;;;5053489;28;20500;-81
2023/12/28 06:04:51;;;;;;;11.48;5.63;;;-3.10;99.90;;;;;;5055234;28;20029;-81
2023/12/28 06:07:25;;;;;;;11.82;4.65;;;-3.10;99.90;;;;;;5053754;28;20035;-82
2023/12/28 06:09:54;;;;;;;6.90;3.65;;;-3.10;99.90;;;;;;5069636;28;20036;-82
2023/12/28 06:12:23;;;;;;;15.07;4.90;;;-3.10;99.90;;;;;;5052597;28;20036;-81
2023/12/28 06:14:54;;;;;;;9.70;4.85;;;-3.10;99.90;;;;;;5033441;28;20083;-81
2023/12/28 06:17:20;;;;;;;6.88;3.60;;;-3.10;99.90;;;;;;5053440;28;20034;-81
2023/12/28 06:19:46;;;;;;;6.15;3.20;;;-3.20;99.90;;;;;;5032961;28;20025;-81
2023/12/28 06:22:12;;;;;;;18.55;7.88;;;-3.20;99.90;;;;;;5033753;28;20386;-81
2023/12/28 06:24:39;;;;;;;15.95;7.13;;;-3.30;99.90;;;;;;5069539;28;20037;-81
2023/12/28 06:27:05;;;;;;;10.52;4.57;;;-3.30;99.90;;;;;;5033525;28;20147;-81
2023/12/28 06:29:30;;;;;;;8.93;3.88;;;-3.30;99.90;;;;;;5036565;28;20055;-81
2023/12/28 06:31:56;;;;;;;8.40;3.28;;;-3.30;99.90;;;;;;5052569;28;20025;-78
2023/12/28 06:34:22;;;;;;;8.80;3.40;;;-3.30;99.90;;;;;;5053809;28;20462;-79
2023/12/28 06:36:47;;;;;;;8.55;4.10;;;-3.30;99.90;;;;;;5052684;28;20029;-78
2023/12/28 06:39:13;;;;;;;8.13;3.83;;;-3.40;99.90;;;;;;5051989;28;20118;-78
2023/12/28 06:41:39;;;;;;;10.23;4.38;;;-3.40;99.90;;;;;;5036930;28;20149;-78
2023/12/28 06:44:05;;;;;;;12.98;6.43;;;-3.40;99.90;;;;;;5042080;28;20036;-78
2023/12/28 06:46:30;;;;;;;12.95;6.68;;;-3.40;99.90;;;;;;5056073;28;20040;-78
2023/12/28 06:48:58;;;;;;;11.13;6.20;;;-3.40;99.90;;;;;;5053510;28;20025;-78
2023/12/28 06:51:24;;;;;;;8.02;4.55;;;-3.40;99.90;;;;;;5036654;28;20074;-78
2023/12/28 06:53:50;;;;;;;9.48;5.03;;;-3.50;99.90;;;;;;5041058;28;20064;-78
2023/12/28 06:56:15;;;;;;;12.65;7.18;;;-3.40;99.90;;;;;;5024006;28;20103;-78
2023/12/28 06:58:41;;;;;;;23.58;13.13;;;-3.40;99.90;;;;;;5032868;28;20428;-78
2023/12/28 07:01:07;;;;;;;15.63;9.57;;;-3.40;99.90;;;;;;5044531;28;20056;-78
2023/12/28 07:03:33;;;;;;;11.98;7.80;;;-3.30;99.90;;;;;;5055863;28;20025;-78
2023/12/28 07:05:59;;;;;;;10.63;6.10;;;-3.40;99.90;;;;;;5036640;28;20028;-78
2023/12/28 07:08:25;;;;;;;11.13;6.38;;;-3.40;99.90;;;;;;5052045;28;20032;-78
2023/12/28 07:10:51;;;;;;;9.35;5.63;;;-3.40;99.90;;;;;;5048226;28;20033;-78
2023/12/28 07:13:17;;;;;;;9.95;5.35;;;-3.40;99.90;;;;;;5038659;28;20053;-78
2023/12/28 07:15:42;;;;;;;11.60;5.03;;;-3.40;99.90;;;;;;5056301;28;20067;-78
2023/12/28 07:18:08;;;;;;;9.40;5.38;;;-3.40;99.90;;;;;;5052943;28;20069;-78
2023/12/28 07:20:34;;;;;;;13.68;6.95;;;-3.30;99.90;;;;;;5064967;28;20024;-78
2023/12/28 07:23:00;;;;;;;15.75;8.05;;;-3.30;99.90;;;;;;5028089;28;20389;-78
2023/12/28 07:25:25;;;;;;;12.45;8.25;;;-3.30;99.90;;;;;;5052241;28;20030;-78
2023/12/28 07:27:51;;;;;;;18.13;10.30;;;-3.30;99.90;;;;;;5052352;28;20044;-78
2023/12/28 07:30:17;;;;;;;14.73;9.45;;;-3.30;99.90;;;;;;5035368;28;20124;-78
2023/12/28 07:32:43;;;;;;;14.13;9.05;;;-3.30;99.90;;;;;;5052864;28;20037;-78
2023/12/28 07:35:09;;;;;;;16.50;9.45;;;-3.30;99.90;;;;;;5037813;28;20378;-78
2023/12/28 07:37:35;;;;;;;16.83;9.60;;;-3.40;99.90;;;;;;5049378;28;20470;-78
2023/12/28 07:40:03;;;;;;;20.88;10.95;;;-3.40;99.90;;;;;;5060499;28;20027;-78
2023/12/28 07:42:29;;;;;;;17.52;9.98;;;-3.40;99.90;;;;;;5054634;28;20026;-78
2023/12/28 07:44:54;;;;;;;11.95;7.28;;;-3.50;99.90;;;;;;5054828;28;20028;-78
2023/12/28 07:47:20;;;;;;;12.38;7.20;;;-3.50;99.90;;;;;;5055548;28;20033;-78
2023/12/28 07:49:46;;;;;;;22.10;11.48;;;-3.60;99.90;;;;;;5055169;28;20041;-78
2023/12/28 07:52:11;;;;;;;18.80;10.27;;;-3.60;99.90;;;;;;5056031;28;20087;-78
2023/12/28 07:54:37;;;;;;;21.60;11.20;;;-3.50;99.90;;;;;;5040089;28;20033;-78
2023/12/28 07:57:03;;;;;;;17.70;9.40;;;-3.50;99.90;;;;;;5050408;28;20940;-78
2023/12/28 07:59:29;;;;;;;20.40;9.82;;;-3.50;99.90;;;;;;5051035;28;20056;-78
2023/12/28 08:01:55;;;;;;;23.17;12.38;;;-3.40;99.90;;;;;;5027517;28;20481;-78
2023/12/28 08:04:21;;;;;;;27.23;16.35;;;-3.40;99.90;;;;;;5048319;28;20406;-78
2023/12/28 08:06:46;;;;;;;28.10;15.18;;;-3.30;99.90;;;;;;5053952;28;20028;-78
2023/12/28 08:09:12;;;;;;;18.13;10.15;;;-3.30;99.90;;;;;;5037108;28;20029;-78
2023/12/28 08:11:38;;;;;;;13.27;7.72;;;-3.30;99.90;;;;;;5052969;28;20021;-78
2023/12/28 08:14:04;;;;;;;15.30;7.95;;;-3.20;99.90;;;;;;5055271;28;20040;-78
2023/12/28 08:16:30;;;;;;;12.45;7.07;;;-3.20;99.90;;;;;;5054145;28;20120;-78
2023/12/28 08:18:56;;;;;;;19.90;12.38;;;-3.20;99.90;;;;;;5037801;28;20060;-78
2023/12/28 08:21:21;;;;;;;24.40;13.18;;;-3.20;99.90;;;;;;5042302;28;20033;-78
2023/12/28 08:23:47;;;;;;;21.92;11.82;;;-3.10;99.90;;;;;;5054600;28;20028;-78
2023/12/28 08:26:12;;;;;;;18.00;8.68;;;-3.10;99.90;;;;;;5055577;28;20065;-78
2023/12/28 08:28:38;;;;;;;9.32;4.57;;;-3.00;99.90;;;;;;5053971;28;20074;-78
2023/12/28 08:31:04;;;;;;;7.45;4.43;;;-3.00;99.90;;;;;;5055224;28;20044;-78
2023/12/28 08:33:30;;;;;;;8.95;5.22;;;-2.90;99.90;;;;;;5037302;28;20035;-78
2023/12/28 08:35:55;;;;;;;7.93;4.55;;;-2.80;99.90;;;;;;5054314;28;20025;-78
2023/12/28 08:38:21;;;;;;;9.20;4.90;;;-2.80;99.90;;;;;;5062893;28;20477;-78
2023/12/28 08:40:47;;;;;;;10.88;6.78;;;-2.70;99.90;;;;;;5037668;28;20021;-78
2023/12/28 08:43:12;;;;;;;8.20;4.90;;;-2.60;99.90;;;;;;5034586;28;20030;-78
2023/12/28 08:45:38;;;;;;;8.07;4.05;;;-2.60;99.90;;;;;;5041724;28;20072;-78
2023/12/28 08:48:04;;;;;;;6.10;3.70;;;-2.60;99.90;;;;;;5038729;28;20040;-78
2023/12/28 08:50:30;;;;;;;7.13;3.20;;;-2.50;99.90;;;;;;5051096;28;20029;-78
2023/12/28 08:52:56;;;;;;;6.75;3.13;;;-2.50;99.90;;;;;;5053542;28;20036;-78
2023/12/28 08:55:22;;;;;;;6.63;2.95;;;-2.40;99.90;;;;;;5051667;28;20120;-78
2023/12/28 08:57:47;;;;;;;5.95;2.70;;;-2.40;99.90;;;;;;5050264;28;20144;-78
2023/12/28 09:00:16;;;;;;;6.35;2.95;;;-2.40;99.90;;;;;;5053727;28;20040;-78
2023/12/28 09:02:42;;;;;;;6.25;3.13;;;-2.30;99.90;;;;;;5052550;28;20037;-78
2023/12/28 09:05:09;;;;;;;5.47;3.10;;;-2.30;99.90;;;;;;5052964;28;20029;-78
2023/12/28 09:07:38;;;;;;;6.68;2.95;;;-2.20;99.90;;;;;;5050337;28;20053;-78
2023/12/28 09:10:04;;;;;;;7.30;3.65;;;-2.20;99.90;;;;;;5040485;28;20130;-78
2023/12/28 09:12:30;;;;;;;8.20;4.10;;;-2.10;99.90;;;;;;5054599;28;20513;-78
2023/12/28 09:14:56;;;;;;;11.48;5.88;;;-2.10;99.90;;;;;;5038960;28;20038;-78
2023/12/28 09:17:22;;;;;;;8.25;4.95;;;-2.00;99.90;;;;;;5051498;28;20036;-78
2023/12/28 09:19:48;;;;;;;8.13;4.07;;;-1.90;99.90;;;;;;5052151;28;20029;-78
2023/12/28 09:22:13;;;;;;;8.82;4.03;;;-1.80;99.90;;;;;;5053253;28;20029;-78
2023/12/28 09:24:39;;;;;;;12.32;4.15;;;-1.70;99.90;;;;;;5046780;28;20022;-78
2023/12/28 09:27:05;;;;;;;7.70;4.72;;;-1.60;99.90;;;;;;5064959;28;20545;-78
2023/12/28 09:29:31;;;;;;;8.98;5.18;;;-1.50;99.90;;;;;;5050147;28;20033;-78
2023/12/28 09:31:56;;;;;;;9.10;4.93;;;-1.30;99.90;;;;;;5050375;28;20041;-78
2023/12/28 09:34:22;;;;;;;7.95;4.18;;;-1.20;99.90;;;;;;5053721;28;20029;-78
2023/12/28 09:36:48;;;;;;;11.23;5.05;;;-1.20;99.90;;;;;;5051245;28;20029;-78
2023/12/28 09:39:13;;;;;;;8.25;4.68;;;-1.10;99.90;;;;;;5069484;28;20033;-78
2023/12/28 09:41:42;;;;;;;11.13;4.40;;;-1.00;99.90;;;;;;5052666;28;20087;-78
2023/12/28 09:44:12;;;;;;;11.18;5.03;;;-0.90;99.90;;;;;;5052528;28;20021;-78
2023/12/28 09:46:42;;;;;;;10.05;5.25;;;-0.80;99.90;;;;;;5053420;28;20397;-80
2023/12/28 09:49:08;;;;;;;13.38;5.95;;;-0.80;99.90;;;;;;5040204;28;20029;-80
2023/12/28 09:51:34;;;;;;;14.57;6.13;;;-0.70;99.90;;;;;;5057256;28;20555;-78
2023/12/28 09:53:59;;;;;;;16.02;7.18;;;-0.60;99.90;;;;;;5052661;28;20112;-78
2023/12/28 09:56:25;;;;;;;13.57;6.57;;;-0.50;99.90;;;;;;5052687;28;20421;-78
2023/12/28 09:58:51;;;;;;;13.10;7.13;;;-0.40;99.90;;;;;;5054065;28;20013;-78
2023/12/28 10:01:20;;;;;;;13.93;6.75;;;-0.40;99.90;;;;;;5051943;28;20032;-78
2023/12/28 10:03:46;;;;;;;12.48;6.22;;;-0.30;99.90;;;;;;5053370;28;20137;-78
2023/12/28 10:06:11;;;;;;;12.30;6.82;;;-0.20;99.90;;;;;;5052844;28;20493;-78
2023/12/28 10:08:48;;;;;;;16.58;6.95;;;-0.10;99.90;;;;;;5053330;28;20025;-78
2023/12/28 10:11:21;;;;;;;14.55;6.55;;;0.00;99.90;;;;;;5052184;28;20029;-78
2023/12/28 10:13:48;;;;;;;15.50;6.60;;;0.10;99.90;;;;;;5052236;28;20030;-78
2023/12/28 10:16:15;;;;;;;18.77;7.82;;;0.20;99.90;;;;;;5052779;28;20052;-78
2023/12/28 10:18:44;;;;;;;16.50;8.07;;;0.40;99.90;;;;;;5052806;28;20025;-78
2023/12/28 10:21:11;;;;;;;17.60;7.72;;;0.50;99.90;;;;;;5054557;28;20021;-78
2023/12/28 10:23:37;;;;;;;14.77;7.63;;;0.60;99.90;;;;;;5039520;28;20029;-78
2023/12/28 10:26:05;;;;;;;16.33;8.30;;;0.70;99.90;;;;;;5039849;28;20082;-78
2023/12/28 10:28:37;;;;;;;20.92;9.98;;;0.80;99.90;;;;;;5057466;28;20021;-78
2023/12/28 10:31:03;;;;;;;15.55;8.15;;;0.80;99.90;;;;;;5057707;28;20029;-78
2023/12/28 10:33:37;;;;;;;16.15;7.45;;;0.90;99.90;;;;;;5056099;28;20398;-78
2023/12/28 10:36:07;;;;;;;10.80;5.95;;;1.00;99.90;;;;;;5073157;28;20478;-78
2023/12/28 10:38:38;;;;;;;12.43;6.32;;;1.10;99.90;;;;;;5056084;28;20025;-78
2023/12/28 10:41:08;;;;;;;12.80;5.40;;;1.10;99.90;;;;;;5057681;28;20029;-78
2023/12/28 10:43:50;;;;;;;11.57;6.15;;;1.20;99.90;;;;;;5057561;28;20021;-79
2023/12/28 10:46:26;;;;;;;12.13;6.15;;;1.30;99.90;;;;;;5055581;28;20048;-79
2023/12/28 10:48:57;;;;;;;12.90;6.38;;;1.30;99.90;;;;;;5056703;28;20036;-78
2023/12/28 10:51:27;;;;;;;13.95;6.18;;;1.40;99.90;;;;;;5057541;28;20025;-78
2023/12/28 10:53:56;;;;;;;12.55;5.80;;;1.40;99.90;;;;;;5057292;28;20025;-78
2023/12/28 10:56:36;;;;;;;9.32;5.05;;;1.50;99.90;;;;;;5055635;28;20032;-80
2023/12/28 10:59:10;;;;;;;10.15;5.35;;;1.60;99.90;;;;;;5055951;28;20013;-79
2023/12/28 11:01:39;;;;;;;11.80;5.93;;;1.70;99.90;;;;;;5056389;28;20030;-78
2023/12/28 11:04:31;;;;;;;9.80;5.53;;;1.80;99.90;;;;;;5057399;28;20359;-78
2023/12/28 11:06:59;;;;;;;10.63;4.80;;;1.90;99.90;;;;;;5035287;28;20029;-79
2023/12/28 11:09:30;;;;;;;10.63;5.00;;;2.10;99.90;;;;;;5036988;28;20045;-79
2023/12/28 11:11:59;;;;;;;10.80;5.50;;;2.20;99.90;;;;;;5056548;28;20521;-79
2023/12/28 11:14:26;;;;;;;11.40;4.85;;;2.30;99.90;;;;;;5056392;28;20048;-79
2023/12/28 11:16:53;;;;;;;14.23;5.57;;;2.30;99.90;;;;;;5040523;28;20107;-79
2023/12/28 11:19:21;;;;;;;9.73;5.30;;;2.30;99.90;;;;;;5057089;28;20533;-79
2023/12/28 11:21:51;;;;;;;10.18;5.35;;;2.30;99.90;;;;;;5057915;28;20076;-79
2023/12/28 11:24:17;;;;;;;11.27;5.03;;;2.40;99.90;;;;;;5056864;28;20492;-79
2023/12/28 11:26:43;;;;;;;10.38;5.45;;;2.40;99.90;;;;;;5057723;28;20473;-78
2023/12/28 11:29:09;;;;;;;9.18;5.38;;;2.40;99.90;;;;;;5051082;28;20042;-79
2023/12/28 11:31:36;;;;;;;17.75;8.82;;;2.40;99.90;;;;;;5037312;28;20441;-79
2023/12/28 11:34:04;;;;;;;38.05;16.23;;;2.40;99.90;;;;;;5036908;28;20414;-79
2023/12/28 11:36:44;;;;;;;24.52;11.70;;;2.50;99.90;;;;;;5036656;28;20033;-79
2023/12/28 11:39:10;;;;;;;18.05;7.97;;;2.50;99.90;;;;;;5055624;28;20039;-79
2023/12/28 11:41:36;;;;;;;12.60;6.00;;;2.50;99.90;;;;;;5073598;28;20103;-79
2023/12/28 11:44:06;;;;;;;11.30;5.63;;;2.60;99.90;;;;;;5063415;28;20112;-79
2023/12/28 11:46:36;;;;;;;9.20;5.75;;;2.60;99.90;;;;;;5056608;28;20037;-79
2023/12/28 11:49:05;;;;;;;9.57;5.78;;;2.60;99.90;;;;;;5039776;28;20025;-79
2023/12/28 11:51:34;;;;;;;10.65;5.65;;;2.60;99.90;;;;;;5037415;28;20033;-79
2023/12/28 11:54:00;;;;;;;10.52;5.07;;;2.70;99.90;;;;;;5056470;28;20067;-78
2023/12/28 11:56:26;;;;;;;27.75;16.17;;;2.70;99.90;;;;;;5057040;28;20036;-79
2023/12/28 11:58:51;;;;;;;21.65;13.48;;;2.70;99.90;;;;;;5057976;28;20059;-78
2023/12/28 12:01:17;;;;;;;12.15;5.50;;;2.80;99.90;;;;;;5057036;28;20045;-78
2023/12/28 12:03:43;;;;;;;10.55;5.10;;;2.80;99.90;;;;;;5056824;28;20541;-78
2023/12/28 12:06:09;;;;;;;12.77;5.82;;;2.90;99.90;;;;;;5056174;28;20382;-79
2023/12/28 12:08:35;;;;;;;12.13;5.63;;;3.00;99.90;;;;;;5056722;28;20036;-79
2023/12/28 12:11:04;;;;;;;12.50;6.13;;;3.10;99.90;;;;;;5056807;28;20029;-79
2023/12/28 12:13:31;;;;;;;11.65;5.43;;;3.10;99.90;;;;;;5055834;28;20022;-79
2023/12/28 12:15:57;;;;;;;12.18;6.50;;;3.20;99.90;;;;;;5057185;28;20025;-78
2023/12/28 12:18:23;;;;;;;12.43;6.25;;;3.20;99.90;;;;;;5038090;28;20040;-79
2023/12/28 12:20:49;;;;;;;10.35;5.80;;;3.30;99.90;;;;;;5053008;28;20036;-79
2023/12/28 12:23:16;;;;;;;10.95;5.65;;;3.40;99.90;;;;;;5042110;28;20021;-79
2023/12/28 12:25:42;;;;;;;11.43;5.68;;;3.50;99.90;;;;;;5052031;28;20024;-79
2023/12/28 12:28:08;;;;;;;8.02;5.03;;;3.50;99.90;;;;;;5055600;28;20531;-79
2023/12/28 12:30:34;;;;;;;12.35;6.78;;;3.60;99.90;;;;;;5054897;28;20183;-79
2023/12/28 12:33:00;;;;;;;10.05;5.72;;;3.60;99.90;;;;;;5055790;28;20029;-79
2023/12/28 12:35:27;;;;;;;13.27;6.55;;;3.60;99.90;;;;;;5037471;28;20485;-79
2023/12/28 12:37:54;;;;;;;15.23;7.47;;;3.70;99.90;;;;;;5054595;28;20082;-79
2023/12/28 12:40:21;;;;;;;17.27;7.18;;;3.70;99.90;;;;;;5054460;28;20029;-79